Bulawayo, Zimbabwe

5:01 PM CAT on September 05, 2015 (GMT +0200)
Bulawayo | | Change Station
CLOSE
Current Station
Airport
Location: Bulawayo Woodvale,
Elevation: 4350 ft
Nearby Weather Stations

Elev 4350 ft 20.02 °S, 28.62 °E | Updated 1 hour ago

Mostly Cloudy
Mostly Cloudy
59 °F
Feels Like 59 °F
N
16
Wind Variable Wind from ESE

Today
High -- | Low -- °F
--% Chance of Precip.
Yesterday
High -- | Low -- °F
Precip. -- in
6:11 AM 5:57 PM
Waning Gibbous, 48% visible
Pressure 30.24 in
Visibility 6.2 miles
Clouds Mostly Cloudy 800 ft
Dew Point 54 °F
Humidity 82%
Rainfall 0.00 in
Snow Depth Not available.
UV 2 out of 12
Pollen Not available.
Air Quality Not available.
Flu Activity Not available.
METAR FVBU 051400Z 11014KT 9999 BKN008 15/12 Q1024 NOSIG
Pressure 30.24 in
Visibility 6.2 miles
Clouds Mostly Cloudy 800 ft
Dew Point 54 °F
Humidity 82%
Rainfall 0.00 in
Snow Depth Not available.
UV 2 out of 12
Pollen Not available.
Air Quality Not available.
Flu Activity Not available.
METAR FVBU 051400Z 11014KT 9999 BKN008 15/12 Q1024 NOSIG

10-Day Weather Forecast

×

Almanac

Astronomy

Sep. 05, 2015 Rise Set
Actual Time
Civil Twilight
Nautical Twilight
Astronomical Twilight
Moon
Length of Visible Light
Length of Day
Tomorrow will be .
, % of the Moon is Illuminated

Today's Extremes

Country Highs Country Lows

Community

WunderPhotos

Upload Photos

1,852,480 photos uploaded!

WunderBlogs® & News

Nearby

Air Quality

  Air Quality AQ Index Pollutant
Not available.

Snow Depth

Station Depth Elevation

Earthquake Activity

City Distance Mag. Time & Date
Minimum magnitude displayed is 2.5.

Coastal Water Temperatures

Place Temperature

Stations

Nearby Weather Stations

Station Location Temp. Windchill Dew Point Humidity Wind Precip. Elev Updated Type